Terminal Aerodrome Forecast
Issued by NWS Cleveland, OH

Home | Current Version | Previous Version | Text Only | Print | Product List | Glossary Off
Versions: 1 2 3 4 5 6 7 8 9 10 11 12 13 14 15 16 17 18 19 20 21 22 23

000
FTUS41 KCLE 271529 AAA
TAFERI
TAF AMD
KERI 271529Z 2715/2812 06012KT 4SM -SHRA BR FEW008 OVC018
      TEMPO 2715/2718 2SM -SHRA BR BKN008 OVC015
     FM271800 09012G22KT 5SM -SHRA BR SCT015 OVC025
     FM280600 14008KT 4SM -SHRA BR OVC015=

USA.gov is the U.S. government's official web portal to all federal, state and local government web resources and services.